Cardiff — D5EX4 — position and weather

sailwx.info

Track history (hours):
 
Tides and Currents Weather Stations Pressure Air Temp Water Temp Dewpoint Dewpoint Depression Visibility Wind Speed Wind Dir Waves Ship Positions

Cardiff

Last reported at 2018-Feb-23 21:55 UTC. Time now 2018-Feb-24 09:38 UTC.
Position N 47°15' W 007°05'.

Length 271 m; draft 14.4 m.

Type: Ship. MMSI: 636016185.

Date/timePositionNaut miles runAvg speedWind from/ knotsBaromVisibWave heightAir tempDewpointWater temp
2018-Feb-23 21:55N 47°15' W 007°05'8018.2
2018-Feb-23 17:32N 48°25' W 006°09'318.8
2018-Feb-23 17:22N 48°28' W 006°06'718.5
2018-Feb-23 17:00N 48°34' W 006°02'1118.9
2018-Feb-23 16:25N 48°44' W 005°54'1219.1
2018-Feb-23 15:49N 48°53' W 005°44'719.8
2018-Feb-23 15:27N 48°57' W 005°34'2120.0
2018-Feb-23 14:23N 49°08' W 005°07'1419.8
2018-Feb-23 13:40N 49°16' W 004°48'319.6
2018-Feb-23 13:30N 49°17' W 004°44'1219.4
2018-Feb-23 12:54N 49°23' W 004°28'2518.8
2018-Feb-23 11:33N 49°36' W 003°54'818.3
2018-Feb-23 11:05N 49°40' W 003°43'118.2
2018-Feb-23 11:00N 49°40' W 003°41'918.2
2018-Feb-23 10:30N 49°44' W 003°28'918.3
2018-Feb-23 10:00N 49°49' W 003°16'918.3
2018-Feb-23 09:30N 49°55' W 003°05'918.7
2018-Feb-23 09:00N 49°59' W 002°52'1019.6
2018-Feb-23 08:30N 50°01' W 002°37'1220.4
2018-Feb-23 07:56N 50°05' W 002°20'921.2
2018-Feb-23 07:30N 50°08' W 002°07'1121.6
2018-Feb-23 07:00N 50°11' W 001°50'1121.9
2018-Feb-23 06:31N 50°13' W 001°34'1121.7
2018-Feb-23 06:00N 50°16' W 001°17'1121.6
2018-Feb-23 05:31N 50°18' W 001°01'2620.4
2018-Feb-23 04:15N 50°26' W 000°23'519.7
2018-Feb-23 04:00N 50°28' W 000°15'1019.3
2018-Feb-23 03:30N 50°31' W 000°01'918.9
2018-Feb-23 03:00N 50°33' E 000°13'918.4
2018-Feb-23 02:30N 50°36' E 000°27'918.1
2018-Feb-23 02:00N 50°40' E 000°40'918.5
2018-Feb-23 01:30N 50°45' E 000°52'919.0
2018-Feb-23 01:01N 50°50' E 001°05'1020.0
2018-Feb-23 00:29N 50°58' E 001°16'1020.1
2018-Feb-23 00:00N 51°05' E 001°27'1020.5
2018-Feb-22 23:30N 51°10' E 001°41'1020.8
2018-Feb-22 23:01N 51°18' E 001°51'918.0
2018-Feb-22 22:31N 51°24' E 002°02'918.6
2018-Feb-22 22:00N 51°20' E 002°16'917.0
2018-Feb-22 21:31N 51°22' E 002°29'714.4
2018-Feb-22 21:00N 51°23' E 002°40'4 7.0
2018-Feb-22 20:30N 51°24' E 002°46'713.8
2018-Feb-22 20:00N 51°25' E 002°57'816.2
2018-Feb-22 19:30N 51°24' E 003°10'815.9
2018-Feb-22 19:00N 51°24' E 003°22'816.0
2018-Feb-22 18:30N 51°26' E 003°35'510.8
2018-Feb-22 18:00N 51°23' E 003°43'713.0
2018-Feb-22 17:30N 51°21' E 003°53'611.8
2018-Feb-22 17:00N 51°26' E 003°58'4 8.3
2018-Feb-22 16:30N 51°23' E 004°03'611.2
2018-Feb-22 16:00N 51°24' E 004°12'4 7.8
2018-Feb-22 15:30N 51°21' E 004°16'0 0.3
2018-Feb-22 15:00N 51°21' E 004°16'0 0.0
2018-Feb-22 14:31N 51°21' E 004°16'0 0.0
2018-Feb-22 14:00N 51°21' E 004°16'0 0.0
2018-Feb-22 13:30N 51°21' E 004°16'0 0.0
2018-Feb-22 12:57N 51°21' E 004°16'0 0.0
2018-Feb-22 12:30N 51°21' E 004°16'0 0.0
2018-Feb-22 12:00N 51°21' E 004°16'0 0.0
2018-Feb-22 11:31N 51°21' E 004°16'0 0.0
2018-Feb-22 10:59N 51°21' E 004°16'0 0.0
2018-Feb-22 10:29N 51°21' E 004°16'0 0.1
2018-Feb-22 10:00N 51°21' E 004°16'0 0.1
2018-Feb-22 09:31N 51°21' E 004°16'0 0.0
2018-Feb-22 09:00N 51°21' E 004°16'0 0.0
2018-Feb-22 08:30N 51°21' E 004°16'0 0.0
2018-Feb-22 08:01N 51°21' E 004°16'0 0.0
2018-Feb-22 07:30N 51°21' E 004°16'0 0.1
2018-Feb-22 07:00N 51°21' E 004°16'0 0.0
2018-Feb-22 06:30N 51°21' E 004°16'0 0.0
2018-Feb-22 05:59N 51°21' E 004°16'0 0.0
2018-Feb-22 05:31N 51°21' E 004°16'0 0.0
2018-Feb-22 05:01N 51°21' E 004°16'0 0.0
2018-Feb-22 04:31N 51°21' E 004°16'0 0.0
2018-Feb-22 04:01N 51°21' E 004°16'0 0.0
2018-Feb-22 03:29N 51°21' E 004°16'0 0.0
2018-Feb-22 03:00N 51°21' E 004°16'0 0.0
2018-Feb-22 02:31N 51°21' E 004°16'0 0.0
2018-Feb-22 02:01N 51°21' E 004°16'0 0.0
2018-Feb-22 01:30N 51°21' E 004°16'0 0.0
2018-Feb-22 01:01N 51°21' E 004°16'0 0.0
2018-Feb-22 00:28N 51°21' E 004°16'0 0.0
2018-Feb-22 00:00N 51°21' E 004°16'0 0.0
2018-Feb-21 23:30N 51°21' E 004°16'0 0.0
2018-Feb-21 23:00N 51°21' E 004°16'0 0.0
2018-Feb-21 22:30N 51°21' E 004°16'0 0.0
2018-Feb-21 21:59N 51°21' E 004°16'0 0.0
2018-Feb-21 21:30N 51°21' E 004°16'0 0.0
2018-Feb-21 20:59N 51°21' E 004°16'0 0.0
2018-Feb-21 20:31N 51°21' E 004°16'0 0.0
2018-Feb-21 20:01N 51°21' E 004°16'0 0.0
2018-Feb-21 19:24N 51°21' E 004°16'0 0.0
2018-Feb-21 19:00N 51°21' E 004°16'0 0.0
2018-Feb-21 18:30N 51°21' E 004°16'0 0.0
2018-Feb-21 18:00N 51°21' E 004°16'0 0.0
2018-Feb-21 17:31N 51°21' E 004°16'0 0.0
2018-Feb-21 16:55N 51°21' E 004°16'0 0.0
2018-Feb-21 16:30N 51°21' E 004°16'0 0.0
2018-Feb-21 15:58N 51°21' E 004°16'0 0.0
2018-Feb-21 15:30N 51°21' E 004°16'0 0.1
2018-Feb-21 15:01N 51°21' E 004°16'0 0.1
2018-Feb-21 14:31N 51°21' E 004°16'0 0.0
2018-Feb-21 14:00N 51°21' E 004°16'0 0.0
2018-Feb-21 13:30N 51°21' E 004°16'0 0.0
2018-Feb-21 13:01N 51°21' E 004°16'0 0.8
2018-Feb-21 12:31N 51°21' E 004°15'4 7.4
2018-Feb-21 12:00N 51°24' E 004°11'510.9
2018-Feb-21 11:31N 51°23' E 004°02'3 6.3
2018-Feb-21 11:00N 51°25' E 003°58'611.9
2018-Feb-21 10:30N 51°21' E 003°50'611.5
2018-Feb-21 10:00N 51°24' E 003°43'5 9.0
2018-Feb-21 09:30N 51°26' E 003°36'3 6.3
2018-Feb-21 09:00N 51°25' E 003°31'713.1
2018-Feb-21 08:31N 51°24' E 003°21'713.9
2018-Feb-21 08:01N 51°24' E 003°10'713.6
2018-Feb-21 07:30N 51°25' E 002°59'714.7
2018-Feb-21 07:01N 51°31' E 003°06'815.3
2018-Feb-21 06:30N 51°38' E 003°11'611.9
2018-Feb-21 05:59N 51°44' E 003°15'5 9.3
2018-Feb-21 05:27N 51°49' E 003°16'3 5.7
2018-Feb-21 04:57N 51°52' E 003°15'1 0.9
2018-Feb-21 04:23N 51°51' E 003°15'0 1.0
2018-Feb-21 04:00N 51°51' E 003°15'0 0.8
2018-Feb-21 03:29N 51°51' E 003°15'0 0.2
2018-Feb-21 02:06N 51°51' E 003°15'0 0.8
2018-Feb-21 01:47N 51°51' E 003°15'0 0.5
2018-Feb-21 01:25N 51°51' E 003°15'0 0.3
2018-Feb-21 00:57N 51°51' E 003°15'0 0.1
2018-Feb-21 00:15N 51°51' E 003°15'0 0.7
2018-Feb-20 23:37N 51°51' E 003°14'0 1.0
2018-Feb-20 23:19N 51°51' E 003°15'1 3.8
2018-Feb-20 22:58N 51°52' E 003°17'611.0
2018-Feb-20 22:24N 51°58' E 003°19'511.1
2018-Feb-20 21:57N 52°03' E 003°20'510.9
2018-Feb-20 21:30N 52°08' E 003°21'510.5
2018-Feb-20 21:00N 52°13' E 003°23'13 9.8
2018-Feb-20 19:43N 52°25' E 003°27'3 9.2
2018-Feb-20 19:23N 52°28' E 003°28'3 9.0
2018-Feb-20 19:00N 52°32' E 003°29'4 8.7
2018-Feb-20 18:30N 52°36' E 003°30'4 8.5
2018-Feb-20 17:59N 52°39' E 003°34'4 8.7
2018-Feb-20 17:30N 52°43' E 003°38'18 9.4
2018-Feb-20 15:33N 52°57' E 003°58'410.6
2018-Feb-20 15:12N 52°59' E 004°03'410.8
2018-Feb-20 14:49N 53°02' E 004°08'310.9
2018-Feb-20 14:30N 53°04' E 004°12'511.0
2018-Feb-20 14:00N 53°08' E 004°19'511.0
2018-Feb-20 13:30N 53°12' E 004°24'610.9
2018-Feb-20 13:00N 53°17' E 004°29'710.6
2018-Feb-20 12:21N 53°23' E 004°34'410.2
2018-Feb-20 12:00N 53°26' E 004°37'5 9.8
2018-Feb-20 11:30N 53°29' E 004°43'5 9.4
2018-Feb-20 11:00N 53°32' E 004°50'5 9.0
2018-Feb-20 10:30N 53°33' E 004°57'6 8.9
2018-Feb-20 09:51N 53°36' E 005°06'5 8.5
2018-Feb-20 09:18N 53°37' E 005°13'3 8.7
2018-Feb-20 08:59N 53°38' E 005°18'15 9.0
2018-Feb-20 07:18N 53°43' E 005°42'1010.4
2018-Feb-20 06:19N 53°46' E 005°58'67 9.6
2018-Feb-19 23:20N 53°52' E 007°51'2 7.4
2018-Feb-19 23:00N 53°52' E 007°55'713.2
2018-Feb-19 22:30N 53°50' E 008°06'612.1
2018-Feb-19 22:00N 53°45' E 008°13'612.1
2018-Feb-19 21:30N 53°41' E 008°21'612.7
2018-Feb-19 21:01N 53°37' E 008°29'2 3.3
2018-Feb-19 20:30N 53°36' E 008°31'0 0.0
2018-Feb-19 20:00N 53°36' E 008°31'0 0.0
2018-Feb-19 19:30N 53°36' E 008°31'0 0.0
2018-Feb-19 19:00N 53°36' E 008°31'0 0.0
2018-Feb-19 18:30N 53°36' E 008°31'0 0.0
2018-Feb-19 18:00N 53°36' E 008°31'0 0.0
2018-Feb-19 17:30N 53°36' E 008°31'0 0.0
2018-Feb-19 17:00N 53°36' E 008°31'0 0.0
2018-Feb-19 16:30N 53°36' E 008°31'0 0.0
2018-Feb-19 16:00N 53°36' E 008°31'0 0.0
2018-Feb-19 15:30N 53°36' E 008°31'0 0.0
2018-Feb-19 15:00N 53°36' E 008°31'0 0.0
2018-Feb-19 14:30N 53°36' E 008°31'0 0.0
2018-Feb-19 14:00N 53°36' E 008°31'0 0.0
2018-Feb-19 13:30N 53°36' E 008°31'0 0.0
2018-Feb-19 13:00N 53°36' E 008°31'0 0.0
2018-Feb-19 12:30N 53°36' E 008°31'0 0.0
2018-Feb-19 12:00N 53°36' E 008°31'0 0.0
2018-Feb-19 11:30N 53°36' E 008°31'0 0.0
2018-Feb-19 11:00N 53°36' E 008°31'0 0.0
2018-Feb-19 10:30N 53°36' E 008°31'0 0.0
2018-Feb-19 10:00N 53°36' E 008°31'0 0.0
2018-Feb-19 09:30N 53°36' E 008°31'0 0.0
2018-Feb-19 09:00N 53°36' E 008°31'0 0.0
2018-Feb-19 08:30N 53°36' E 008°31'0 0.0
2018-Feb-19 08:00N 53°36' E 008°31'0 0.0
2018-Feb-19 07:30N 53°36' E 008°31'0 0.0
2018-Feb-19 07:00N 53°36' E 008°31'0 0.0
2018-Feb-19 06:30N 53°36' E 008°31'0 0.0
2018-Feb-19 06:00N 53°36' E 008°31'0 0.0
2018-Feb-19 05:30N 53°36' E 008°31'0 0.0
2018-Feb-19 05:00N 53°36' E 008°31'0 0.0
2018-Feb-19 04:30N 53°36' E 008°31'0 0.0
2018-Feb-19 04:00N 53°36' E 008°31'0 0.0
2018-Feb-19 03:30N 53°36' E 008°31'0 0.0
2018-Feb-19 03:00N 53°36' E 008°31'0 0.0
2018-Feb-19 02:30N 53°36' E 008°31'0 0.0
2018-Feb-19 02:00N 53°36' E 008°31'0 0.0
2018-Feb-19 01:30N 53°36' E 008°31'0 0.0
2018-Feb-19 01:00N 53°36' E 008°31'0 0.0
2018-Feb-19 00:30N 53°36' E 008°31'0 0.0
2018-Feb-19 00:00N 53°36' E 008°31'0 0.0
2018-Feb-18 23:30N 53°36' E 008°31'0 0.0
2018-Feb-18 23:00N 53°36' E 008°31'0 0.0
2018-Feb-18 22:30N 53°36' E 008°31'1 2.3
2018-Feb-18 22:01N 53°37' E 008°29'713.2
2018-Feb-18 21:31N 53°41' E 008°21'917.0
2018-Feb-18 21:00N 53°47' E 008°10'815.4
2018-Feb-18 20:30N 53°51' E 007°59'713.7
2018-Feb-18 20:00N 53°52' E 007°48'815.6
2018-Feb-18 19:30N 53°54' E 007°35'5 9.0
2018-Feb-18 19:00N 53°51' E 007°28'0 1.0
2018-Feb-18 18:30N 53°51' E 007°29'0 1.0
2018-Feb-18 18:00N 53°51' E 007°30'0 0.9
2018-Feb-18 17:30N 53°51' E 007°30'0 0.6
2018-Feb-18 16:55N 53°51' E 007°31'0 0.7
2018-Feb-18 16:28N 53°51' E 007°31'3 3.4
2018-Feb-18 15:42N 53°52' E 007°27'0 1.1
2018-Feb-18 15:27N 53°52' E 007°27'0 1.1
2018-Feb-18 14:59N 53°52' E 007°28'0 0.7
2018-Feb-18 14:29N 53°51' E 007°28'0 0.4
2018-Feb-18 13:59N 53°51' E 007°28'1 2.1
2018-Feb-18 13:30N 53°52' E 007°29'5 8.0
2018-Feb-18 12:52N 53°53' E 007°21'4215.8
2018-Feb-18 10:15N 53°44' E 006°12'516.4
2018-Feb-18 09:56N 53°42' E 006°04'716.6
2018-Feb-18 09:30N 53°39' E 005°53'1216.9
2018-Feb-18 08:47N 53°36' E 005°34'518.2
2018-Feb-18 08:30N 53°34' E 005°25'918.6
2018-Feb-18 08:00N 53°32' E 005°10'1019.1
2018-Feb-18 07:30N 53°28' E 004°55'1218.4
2018-Feb-18 06:51N 53°20' E 004°40'720.0
2018-Feb-18 06:30N 53°14' E 004°36'1020.4
2018-Feb-18 06:00N 53°05' E 004°27'1019.8
2018-Feb-18 05:30N 52°56' E 004°19'1019.6
2018-Feb-18 05:00N 52°48' E 004°11'1019.8
2018-Feb-18 04:30N 52°39' E 004°02'1019.6
2018-Feb-18 04:00N 52°31' E 003°55'1019.7
2018-Feb-18 03:30N 52°21' E 003°52'1019.6
2018-Feb-18 03:00N 52°11' E 003°54'917.1
2018-Feb-18 02:30N 52°03' E 003°54'612.3
2018-Feb-18 02:00N 51°59' E 004°03'1 2.5
2018-Feb-18 01:30N 51°58' E 004°02'2 3.0
2018-Feb-18 01:00N 51°57' E 003°60'0 0.2
2018-Feb-18 00:25N 51°57' E 003°60'0 0.0
2018-Feb-17 23:52N 51°57' E 003°60'0 0.0
2018-Feb-17 23:28N 51°57' E 003°60'0 0.0
2018-Feb-17 22:58N 51°57' E 003°60'0 0.0
2018-Feb-17 22:28N 51°57' E 003°60'0 0.0
2018-Feb-17 21:58N 51°57' E 003°60'0 0.0
2018-Feb-17 21:28N 51°57' E 003°60'0 0.0
2018-Feb-17 20:55N 51°57' E 003°60'0 0.0
2018-Feb-17 20:28N 51°57' E 003°60'0 0.0
2018-Feb-17 19:58N 51°57' E 003°60'0 0.0
2018-Feb-17 19:28N 51°57' E 003°60'0 0.0
2018-Feb-17 18:58N 51°57' E 003°60'0 0.0
2018-Feb-17 18:28N 51°57' E 003°60'0 0.0
2018-Feb-17 17:58N 51°57' E 003°60'0 0.0
2018-Feb-17 17:28N 51°57' E 003°60'0 0.0
2018-Feb-17 16:58N 51°57' E 003°60'0 0.0
2018-Feb-17 16:28N 51°57' E 003°60'0 0.0
2018-Feb-17 15:58N 51°57' E 003°60'0 0.0
2018-Feb-17 15:28N 51°57' E 003°60'0 0.0
2018-Feb-17 14:58N 51°57' E 003°60'0 0.0
2018-Feb-17 14:28N 51°57' E 003°60'0 0.0
2018-Feb-17 13:58N 51°57' E 003°60'0 0.0
2018-Feb-17 13:28N 51°57' E 003°60'0 0.0
2018-Feb-17 12:58N 51°57' E 003°60'0 0.0
2018-Feb-17 12:28N 51°57' E 003°60'0 0.0
2018-Feb-17 11:58N 51°57' E 003°60'0 0.0
2018-Feb-17 11:28N 51°57' E 003°60'0 0.0
2018-Feb-17 10:58N 51°57' E 003°60'0 0.0
2018-Feb-17 10:28N 51°57' E 003°60'0 0.0
2018-Feb-17 09:58N 51°57' E 003°60'0 0.0
2018-Feb-17 09:28N 51°57' E 003°60'0 0.0
2018-Feb-17 08:58N 51°57' E 003°60'0 0.0
2018-Feb-17 08:28N 51°57' E 003°60'0 0.0
2018-Feb-17 07:55N 51°57' E 003°60'0 0.0
2018-Feb-17 07:28N 51°57' E 003°60'0 0.0
2018-Feb-17 06:58N 51°57' E 003°60'0 0.0
2018-Feb-17 06:28N 51°57' E 003°60'0 0.0
2018-Feb-17 05:58N 51°57' E 003°60'0 0.0
2018-Feb-17 05:28N 51°57' E 003°60'0 0.0
2018-Feb-17 04:58N 51°57' E 003°60'0 0.0
2018-Feb-17 04:25N 51°57' E 003°60'0 0.0
2018-Feb-17 03:58N 51°57' E 003°60'0 0.0
2018-Feb-17 03:22N 51°57' E 003°60'0 0.0
2018-Feb-17 02:58N 51°57' E 003°60'0 0.4
2018-Feb-17 02:30N 51°57' E 003°60'2 5.0
2018-Feb-17 02:00N 51°58' E 004°04'2 4.3
2018-Feb-17 01:31N 51°60' E 004°02'713.0
2018-Feb-17 01:01N 52°00' E 003°51'612.5
2018-Feb-17 00:30N 51°59' E 003°42'917.4
2018-Feb-17 00:00N 51°56' E 003°28'917.9
2018-Feb-16 23:30N 51°55' E 003°14'1019.0
2018-Feb-16 23:00N 51°54' E 002°58'918.9
2018-Feb-16 22:30N 51°53' E 002°43'918.7
2018-Feb-16 22:00N 51°53' E 002°28'918.2
2018-Feb-16 21:30N 51°53' E 002°13'917.7
2018-Feb-16 21:00N 51°51' E 001°59'815.7
2018-Feb-16 20:30N 51°49' E 001°47'815.3
2018-Feb-16 20:00N 51°52' E 001°35'611.8
2018-Feb-16 19:31N 51°56' E 001°29'612.7
2018-Feb-16 19:00N 51°56' E 001°19'2 3.5
2018-Feb-16 18:28N 51°58' E 001°18'0 0.0
2018-Feb-16 17:58N 51°58' E 001°18'0 0.0
2018-Feb-16 17:28N 51°58' E 001°18'0 0.0
2018-Feb-16 16:58N 51°58' E 001°18'0 0.0
2018-Feb-16 16:28N 51°58' E 001°18'0 0.0
2018-Feb-16 15:58N 51°58' E 001°18'0 0.0
2018-Feb-16 15:28N 51°58' E 001°18'0 0.0
2018-Feb-16 14:58N 51°58' E 001°18'0 0.0
2018-Feb-16 14:28N 51°58' E 001°18'0 0.0
2018-Feb-16 13:58N 51°58' E 001°18'0 0.0
2018-Feb-16 13:28N 51°58' E 001°18'0 0.0
2018-Feb-16 12:55N 51°58' E 001°18'0 0.0
2018-Feb-16 12:28N 51°58' E 001°18'0 0.0
2018-Feb-16 11:58N 51°58' E 001°18'0 0.0
2018-Feb-16 11:28N 51°58' E 001°18'0 0.0
2018-Feb-16 10:58N 51°58' E 001°18'0 0.0
2018-Feb-16 10:28N 51°58' E 001°18'0 0.0
2018-Feb-16 09:58N 51°58' E 001°18'0 0.0
2018-Feb-16 09:28N 51°58' E 001°18'0 0.0
2018-Feb-16 08:58N 51°58' E 001°18'0 0.0
2018-Feb-16 08:28N 51°58' E 001°18'0 0.0
2018-Feb-16 07:58N 51°58' E 001°18'0 0.0
2018-Feb-16 07:28N 51°58' E 001°18'0 0.0
2018-Feb-16 06:58N 51°58' E 001°18'0 0.0
2018-Feb-16 06:28N 51°58' E 001°18'0 0.0
2018-Feb-16 05:58N 51°58' E 001°18'0 0.0
2018-Feb-16 05:28N 51°58' E 001°18'0 0.0
2018-Feb-16 04:58N 51°58' E 001°18'0 0.1
2018-Feb-16 04:28N 51°58' E 001°18'0 0.1
2018-Feb-16 03:58N 51°58' E 001°18'0 0.0
2018-Feb-16 03:28N 51°58' E 001°18'0 0.0
2018-Feb-16 02:58N 51°58' E 001°18'0 0.0
2018-Feb-16 02:28N 51°58' E 001°18'0 0.0
2018-Feb-16 01:58N 51°58' E 001°18'0 0.0
2018-Feb-16 01:28N 51°58' E 001°18'0 0.0
2018-Feb-16 00:58N 51°58' E 001°18'0 0.0
2018-Feb-16 00:28N 51°58' E 001°18'0 0.0
2018-Feb-15 23:58N 51°58' E 001°18'0 0.0
2018-Feb-15 23:25N 51°58' E 001°18'0 0.0
2018-Feb-15 22:58N 51°58' E 001°18'0 0.0
2018-Feb-15 22:28N 51°58' E 001°18'0 0.0
2018-Feb-15 21:58N 51°58' E 001°18'0 0.0
2018-Feb-15 21:28N 51°58' E 001°18'0 0.0
2018-Feb-15 20:58N 51°58' E 001°18'0 0.0
2018-Feb-15 20:28N 51°58' E 001°18'0 0.0
2018-Feb-15 19:58N 51°58' E 001°18'0 0.0
2018-Feb-15 19:28N 51°58' E 001°18'0 0.0
2018-Feb-15 18:58N 51°58' E 001°18'0 0.0
2018-Feb-15 18:28N 51°58' E 001°18'0 0.0
2018-Feb-15 17:58N 51°58' E 001°18'0 0.0
2018-Feb-15 17:25N 51°58' E 001°18'0 0.0
2018-Feb-15 16:58N 51°58' E 001°18'0 0.0
2018-Feb-15 16:28N 51°58' E 001°18'0 0.0
2018-Feb-15 15:58N 51°58' E 001°18'0 0.0
2018-Feb-15 15:28N 51°58' E 001°18'0 0.0
2018-Feb-15 14:58N 51°58' E 001°18'0 0.0
2018-Feb-15 14:28N 51°58' E 001°18'0 0.0
2018-Feb-15 13:58N 51°58' E 001°18'0 0.0
2018-Feb-15 13:28N 51°58' E 001°18'0 0.0
2018-Feb-15 12:55N 51°58' E 001°18'0 0.0
2018-Feb-15 12:28N 51°58' E 001°18'0 0.0
2018-Feb-15 11:58N 51°58' E 001°18'0 0.0
2018-Feb-15 11:28N 51°58' E 001°18'0 0.0
2018-Feb-15 10:58N 51°58' E 001°18'0 0.0
2018-Feb-15 10:28N 51°58' E 001°18'0 0.0
2018-Feb-15 09:58N 51°58' E 001°18'0 0.0
2018-Feb-15 09:28N 51°58' E 001°18'0 0.0
2018-Feb-15 08:58N 51°58' E 001°18'0 0.0
2018-Feb-15 08:28N 51°58' E 001°18'0 0.0
2018-Feb-15 08:00N 51°58' E 001°18'1 1.1
2018-Feb-15 07:31N 51°57' E 001°18'4 7.5
2018-Feb-15 07:01N 51°56' E 001°24'612.0
2018-Feb-15 06:30N 51°55' E 001°34'4 8.4
2018-Feb-15 06:00N 51°52' E 001°37'1 2.4
2018-Feb-15 05:30N 51°52' E 001°39'2 3.4
2018-Feb-15 05:00N 51°52' E 001°41'2 3.1
2018-Feb-15 04:30N 51°53' E 001°43'0 0.8
2018-Feb-15 04:00N 51°52' E 001°44'1 1.9
2018-Feb-15 03:30N 51°53' E 001°44'1 2.5
2018-Feb-15 03:00N 51°54' E 001°45'2 3.7
2018-Feb-15 02:30N 51°56' E 001°45'2 3.5
2018-Feb-15 02:00N 51°57' E 001°48'2 4.7
2018-Feb-15 01:30N 51°55' E 001°48'5 9.6
2018-Feb-15 01:00N 51°50' E 001°49'510.5
2018-Feb-15 00:30N 51°45' E 001°49'3 5.8
2018-Feb-15 00:00N 51°43' E 001°46'2 4.1
2018-Feb-14 23:30N 51°45' E 001°44'2 4.8
2018-Feb-14 23:00N 51°47' E 001°44'2 4.9
2018-Feb-14 22:30N 51°50' E 001°44'2 3.5
2018-Feb-14 22:00N 51°51' E 001°46'3 5.7
2018-Feb-14 21:30N 51°49' E 001°49'4 7.8
2018-Feb-14 21:00N 51°45' E 001°49'5 9.5
2018-Feb-14 20:30N 51°40' E 001°50'5 9.6
2018-Feb-14 20:00N 51°36' E 001°51'5 9.9
2018-Feb-14 19:30N 51°31' E 001°55'5 9.9
2018-Feb-14 19:00N 51°27' E 001°59'5 9.2
2018-Feb-14 18:30N 51°23' E 002°01'510.7
2018-Feb-14 18:01N 51°18' E 001°56'612.5
2018-Feb-14 17:30N 51°14' E 001°49'612.8
2018-Feb-14 17:00N 51°09' E 001°43'713.1
2018-Feb-14 16:30N 51°04' E 001°37'713.3
2018-Feb-14 16:00N 50°58' E 001°31'713.9
2018-Feb-14 15:31N 50°52' E 001°25'713.8
2018-Feb-14 15:00N 50°45' E 001°22'713.3
2018-Feb-14 14:27N 50°39' E 001°15'712.9
2018-Feb-14 13:55N 50°34' E 001°08'613.1
2018-Feb-14 13:26N 50°30' E 001°00'912.7
2018-Feb-14 12:44N 50°27' E 000°47'311.9
2018-Feb-14 12:30N 50°26' E 000°43'611.7
2018-Feb-14 12:00N 50°25' E 000°34'611.8
2018-Feb-14 11:30N 50°23' E 000°25'612.0
2018-Feb-14 11:00N 50°22' E 000°16'612.2
2018-Feb-14 10:30N 50°20' E 000°07'612.6
2018-Feb-14 10:00N 50°19' W 000°03'713.0
2018-Feb-14 09:30N 50°17' W 000°13'713.5
2018-Feb-14 09:00N 50°15' W 000°23'714.0
2018-Feb-14 08:30N 50°13' W 000°33'714.4
2018-Feb-14 08:00N 50°11' W 000°44'815.3
2018-Feb-14 07:30N 50°09' W 000°55'815.9
2018-Feb-14 07:01N 50°07' W 001°07'815.9
2018-Feb-14 06:30N 50°05' W 001°19'815.6
2018-Feb-14 06:00N 50°03' W 001°31'815.3
2018-Feb-14 05:30N 50°01' W 001°43'714.8
2018-Feb-14 05:00N 49°59' W 001°54'714.2
2018-Feb-14 04:30N 49°57' W 002°05'1313.2
2018-Feb-14 03:30N 49°53' W 002°24'912.5
2018-Feb-14 02:48N 49°51' W 002°37'412.2
2018-Feb-14 02:30N 49°49' W 002°42'612.1
2018-Feb-14 02:01N 49°47' W 002°51'711.9
2018-Feb-14 01:28N 49°44' W 003°00'711.9
2018-Feb-14 00:52N 49°41' W 003°09'411.9
2018-Feb-14 00:31N 49°39' W 003°15'611.9
2018-Feb-13 23:59N 49°35' W 003°24'  
Track history (hours):
 
Tides and Currents Weather Stations Pressure Air Temp Water Temp Dewpoint Dewpoint Depression Visibility Wind Speed Wind Dir Waves Ship Positions

Cardiff

Last reported at 2018-Feb-23 21:55 UTC. Time now 2018-Feb-24 09:38 UTC.
Position N 47°15' W 007°05'.

Length 271 m; draft 14.4 m.

Type: Ship. MMSI: 636016185.

Date/timePositionNaut miles runAvg speedWind from/ knotsBaromVisibWave heightAir tempDewpointWater temp
2018-Feb-23 21:55N 47°15' W 007°05'8018.2
2018-Feb-23 17:32N 48°25' W 006°09'318.8
2018-Feb-23 17:22N 48°28' W 006°06'718.5
2018-Feb-23 17:00N 48°34' W 006°02'1118.9
2018-Feb-23 16:25N 48°44' W 005°54'1219.1
2018-Feb-23 15:49N 48°53' W 005°44'719.8
2018-Feb-23 15:27N 48°57' W 005°34'2120.0
2018-Feb-23 14:23N 49°08' W 005°07'1419.8
2018-Feb-23 13:40N 49°16' W 004°48'319.6
2018-Feb-23 13:30N 49°17' W 004°44'1219.4
2018-Feb-23 12:54N 49°23' W 004°28'2518.8
2018-Feb-23 11:33N 49°36' W 003°54'818.3
2018-Feb-23 11:05N 49°40' W 003°43'118.2
2018-Feb-23 11:00N 49°40' W 003°41'918.2
2018-Feb-23 10:30N 49°44' W 003°28'918.3
2018-Feb-23 10:00N 49°49' W 003°16'918.3
2018-Feb-23 09:30N 49°55' W 003°05'918.7
2018-Feb-23 09:00N 49°59' W 002°52'1019.6
2018-Feb-23 08:30N 50°01' W 002°37'1220.4
2018-Feb-23 07:56N 50°05' W 002°20'921.2
2018-Feb-23 07:30N 50°08' W 002°07'1121.6
2018-Feb-23 07:00N 50°11' W 001°50'1121.9
2018-Feb-23 06:31N 50°13' W 001°34'1121.7
2018-Feb-23 06:00N 50°16' W 001°17'1121.6
2018-Feb-23 05:31N 50°18' W 001°01'2620.4
2018-Feb-23 04:15N 50°26' W 000°23'519.7
2018-Feb-23 04:00N 50°28' W 000°15'1019.3
2018-Feb-23 03:30N 50°31' W 000°01'918.9
2018-Feb-23 03:00N 50°33' E 000°13'918.4
2018-Feb-23 02:30N 50°36' E 000°27'918.1
2018-Feb-23 02:00N 50°40' E 000°40'918.5
2018-Feb-23 01:30N 50°45' E 000°52'919.0
2018-Feb-23 01:01N 50°50' E 001°05'1020.0
2018-Feb-23 00:29N 50°58' E 001°16'1020.1
2018-Feb-23 00:00N 51°05' E 001°27'1020.5
2018-Feb-22 23:30N 51°10' E 001°41'1020.8
2018-Feb-22 23:01N 51°18' E 001°51'918.0
2018-Feb-22 22:31N 51°24' E 002°02'918.6
2018-Feb-22 22:00N 51°20' E 002°16'917.0
2018-Feb-22 21:31N 51°22' E 002°29'714.4
2018-Feb-22 21:00N 51°23' E 002°40'4 7.0
2018-Feb-22 20:30N 51°24' E 002°46'713.8
2018-Feb-22 20:00N 51°25' E 002°57'816.2
2018-Feb-22 19:30N 51°24' E 003°10'815.9
2018-Feb-22 19:00N 51°24' E 003°22'816.0
2018-Feb-22 18:30N 51°26' E 003°35'510.8
2018-Feb-22 18:00N 51°23' E 003°43'713.0
2018-Feb-22 17:30N 51°21' E 003°53'611.8
2018-Feb-22 17:00N 51°26' E 003°58'4 8.3
2018-Feb-22 16:30N 51°23' E 004°03'611.2
2018-Feb-22 16:00N 51°24' E 004°12'4 7.8
2018-Feb-22 15:30N 51°21' E 004°16'0 0.3
2018-Feb-22 15:00N 51°21' E 004°16'0 0.0
2018-Feb-22 14:31N 51°21' E 004°16'0 0.0
2018-Feb-22 14:00N 51°21' E 004°16'0 0.0
2018-Feb-22 13:30N 51°21' E 004°16'0 0.0
2018-Feb-22 12:57N 51°21' E 004°16'0 0.0
2018-Feb-22 12:30N 51°21' E 004°16'0 0.0
2018-Feb-22 12:00N 51°21' E 004°16'0 0.0
2018-Feb-22 11:31N 51°21' E 004°16'0 0.0
2018-Feb-22 10:59N 51°21' E 004°16'0 0.0
2018-Feb-22 10:29N 51°21' E 004°16'0 0.1
2018-Feb-22 10:00N 51°21' E 004°16'0 0.1
2018-Feb-22 09:31N 51°21' E 004°16'0 0.0
2018-Feb-22 09:00N 51°21' E 004°16'0 0.0
2018-Feb-22 08:30N 51°21' E 004°16'0 0.0
2018-Feb-22 08:01N 51°21' E 004°16'0 0.0
2018-Feb-22 07:30N 51°21' E 004°16'0 0.1
2018-Feb-22 07:00N 51°21' E 004°16'0 0.0
2018-Feb-22 06:30N 51°21' E 004°16'0 0.0
2018-Feb-22 05:59N 51°21' E 004°16'0 0.0
2018-Feb-22 05:31N 51°21' E 004°16'0 0.0
2018-Feb-22 05:01N 51°21' E 004°16'0 0.0
2018-Feb-22 04:31N 51°21' E 004°16'0 0.0
2018-Feb-22 04:01N 51°21' E 004°16'0 0.0
2018-Feb-22 03:29N 51°21' E 004°16'0 0.0
2018-Feb-22 03:00N 51°21' E 004°16'0 0.0
2018-Feb-22 02:31N 51°21' E 004°16'0 0.0
2018-Feb-22 02:01N 51°21' E 004°16'0 0.0
2018-Feb-22 01:30N 51°21' E 004°16'0 0.0
2018-Feb-22 01:01N 51°21' E 004°16'0 0.0
2018-Feb-22 00:28N 51°21' E 004°16'0 0.0
2018-Feb-22 00:00N 51°21' E 004°16'0 0.0
2018-Feb-21 23:30N 51°21' E 004°16'0 0.0
2018-Feb-21 23:00N 51°21' E 004°16'0 0.0
2018-Feb-21 22:30N 51°21' E 004°16'0 0.0
2018-Feb-21 21:59N 51°21' E 004°16'0 0.0
2018-Feb-21 21:30N 51°21' E 004°16'0 0.0
2018-Feb-21 20:59N 51°21' E 004°16'0 0.0
2018-Feb-21 20:31N 51°21' E 004°16'0 0.0
2018-Feb-21 20:01N 51°21' E 004°16'0 0.0
2018-Feb-21 19:24N 51°21' E 004°16'0 0.0
2018-Feb-21 19:00N 51°21' E 004°16'0 0.0
2018-Feb-21 18:30N 51°21' E 004°16'0 0.0
2018-Feb-21 18:00N 51°21' E 004°16'0 0.0
2018-Feb-21 17:31N 51°21' E 004°16'0 0.0
2018-Feb-21 16:55N 51°21' E 004°16'0 0.0
2018-Feb-21 16:30N 51°21' E 004°16'0 0.0
2018-Feb-21 15:58N 51°21' E 004°16'0 0.0
2018-Feb-21 15:30N 51°21' E 004°16'0 0.1
2018-Feb-21 15:01N 51°21' E 004°16'0 0.1
2018-Feb-21 14:31N 51°21' E 004°16'0 0.0
2018-Feb-21 14:00N 51°21' E 004°16'0 0.0
2018-Feb-21 13:30N 51°21' E 004°16'0 0.0
2018-Feb-21 13:01N 51°21' E 004°16'0 0.8
2018-Feb-21 12:31N 51°21' E 004°15'4 7.4
2018-Feb-21 12:00N 51°24' E 004°11'510.9
2018-Feb-21 11:31N 51°23' E 004°02'3 6.3
2018-Feb-21 11:00N 51°25' E 003°58'611.9
2018-Feb-21 10:30N 51°21' E 003°50'611.5
2018-Feb-21 10:00N 51°24' E 003°43'5 9.0
2018-Feb-21 09:30N 51°26' E 003°36'3 6.3
2018-Feb-21 09:00N 51°25' E 003°31'713.1
2018-Feb-21 08:31N 51°24' E 003°21'713.9
2018-Feb-21 08:01N 51°24' E 003°10'713.6
2018-Feb-21 07:30N 51°25' E 002°59'714.7
2018-Feb-21 07:01N 51°31' E 003°06'815.3
2018-Feb-21 06:30N 51°38' E 003°11'611.9
2018-Feb-21 05:59N 51°44' E 003°15'5 9.3
2018-Feb-21 05:27N 51°49' E 003°16'3 5.7
2018-Feb-21 04:57N 51°52' E 003°15'1 0.9
2018-Feb-21 04:23N 51°51' E 003°15'0 1.0
2018-Feb-21 04:00N 51°51' E 003°15'0 0.8
2018-Feb-21 03:29N 51°51' E 003°15'0 0.2
2018-Feb-21 02:06N 51°51' E 003°15'0 0.8
2018-Feb-21 01:47N 51°51' E 003°15'0 0.5
2018-Feb-21 01:25N 51°51' E 003°15'0 0.3
2018-Feb-21 00:57N 51°51' E 003°15'0 0.1
2018-Feb-21 00:15N 51°51' E 003°15'0 0.7
2018-Feb-20 23:37N 51°51' E 003°14'0 1.0
2018-Feb-20 23:19N 51°51' E 003°15'1 3.8
2018-Feb-20 22:58N 51°52' E 003°17'611.0
2018-Feb-20 22:24N 51°58' E 003°19'511.1
2018-Feb-20 21:57N 52°03' E 003°20'510.9
2018-Feb-20 21:30N 52°08' E 003°21'510.5
2018-Feb-20 21:00N 52°13' E 003°23'13 9.8
2018-Feb-20 19:43N 52°25' E 003°27'3 9.2
2018-Feb-20 19:23N 52°28' E 003°28'3 9.0
2018-Feb-20 19:00N 52°32' E 003°29'4 8.7
2018-Feb-20 18:30N 52°36' E 003°30'4 8.5
2018-Feb-20 17:59N 52°39' E 003°34'4 8.7
2018-Feb-20 17:30N 52°43' E 003°38'18 9.4
2018-Feb-20 15:33N 52°57' E 003°58'410.6
2018-Feb-20 15:12N 52°59' E 004°03'410.8
2018-Feb-20 14:49N 53°02' E 004°08'310.9
2018-Feb-20 14:30N 53°04' E 004°12'511.0
2018-Feb-20 14:00N 53°08' E 004°19'511.0
2018-Feb-20 13:30N 53°12' E 004°24'610.9
2018-Feb-20 13:00N 53°17' E 004°29'710.6
2018-Feb-20 12:21N 53°23' E 004°34'410.2
2018-Feb-20 12:00N 53°26' E 004°37'5 9.8
2018-Feb-20 11:30N 53°29' E 004°43'5 9.4
2018-Feb-20 11:00N 53°32' E 004°50'5 9.0
2018-Feb-20 10:30N 53°33' E 004°57'6 8.9
2018-Feb-20 09:51N 53°36' E 005°06'5 8.5
2018-Feb-20 09:18N 53°37' E 005°13'3 8.7
2018-Feb-20 08:59N 53°38' E 005°18'15 9.0
2018-Feb-20 07:18N 53°43' E 005°42'1010.4
2018-Feb-20 06:19N 53°46' E 005°58'67 9.6
2018-Feb-19 23:20N 53°52' E 007°51'2 7.4
2018-Feb-19 23:00N 53°52' E 007°55'713.2
2018-Feb-19 22:30N 53°50' E 008°06'612.1
2018-Feb-19 22:00N 53°45' E 008°13'612.1
2018-Feb-19 21:30N 53°41' E 008°21'612.7
2018-Feb-19 21:01N 53°37' E 008°29'2 3.3
2018-Feb-19 20:30N 53°36' E 008°31'0 0.0
2018-Feb-19 20:00N 53°36' E 008°31'0 0.0
2018-Feb-19 19:30N 53°36' E 008°31'0 0.0
2018-Feb-19 19:00N 53°36' E 008°31'0 0.0
2018-Feb-19 18:30N 53°36' E 008°31'0 0.0
2018-Feb-19 18:00N 53°36' E 008°31'0 0.0
2018-Feb-19 17:30N 53°36' E 008°31'0 0.0
2018-Feb-19 17:00N 53°36' E 008°31'0 0.0
2018-Feb-19 16:30N 53°36' E 008°31'0 0.0
2018-Feb-19 16:00N 53°36' E 008°31'0 0.0
2018-Feb-19 15:30N 53°36' E 008°31'0 0.0
2018-Feb-19 15:00N 53°36' E 008°31'0 0.0
2018-Feb-19 14:30N 53°36' E 008°31'0 0.0
2018-Feb-19 14:00N 53°36' E 008°31'0 0.0
2018-Feb-19 13:30N 53°36' E 008°31'0 0.0
2018-Feb-19 13:00N 53°36' E 008°31'0 0.0
2018-Feb-19 12:30N 53°36' E 008°31'0 0.0
2018-Feb-19 12:00N 53°36' E 008°31'0 0.0
2018-Feb-19 11:30N 53°36' E 008°31'0 0.0
2018-Feb-19 11:00N 53°36' E 008°31'0 0.0
2018-Feb-19 10:30N 53°36' E 008°31'0 0.0
2018-Feb-19 10:00N 53°36' E 008°31'0 0.0
2018-Feb-19 09:30N 53°36' E 008°31'0 0.0
2018-Feb-19 09:00N 53°36' E 008°31'0 0.0
2018-Feb-19 08:30N 53°36' E 008°31'0 0.0
2018-Feb-19 08:00N 53°36' E 008°31'0 0.0
2018-Feb-19 07:30N 53°36' E 008°31'0 0.0
2018-Feb-19 07:00N 53°36' E 008°31'0 0.0
2018-Feb-19 06:30N 53°36' E 008°31'0 0.0
2018-Feb-19 06:00N 53°36' E 008°31'0 0.0
2018-Feb-19 05:30N 53°36' E 008°31'0 0.0
2018-Feb-19 05:00N 53°36' E 008°31'0 0.0
2018-Feb-19 04:30N 53°36' E 008°31'0 0.0
2018-Feb-19 04:00N 53°36' E 008°31'0 0.0
2018-Feb-19 03:30N 53°36' E 008°31'0 0.0
2018-Feb-19 03:00N 53°36' E 008°31'0 0.0
2018-Feb-19 02:30N 53°36' E 008°31'0 0.0
2018-Feb-19 02:00N 53°36' E 008°31'0 0.0
2018-Feb-19 01:30N 53°36' E 008°31'0 0.0
2018-Feb-19 01:00N 53°36' E 008°31'0 0.0
2018-Feb-19 00:30N 53°36' E 008°31'0 0.0
2018-Feb-19 00:00N 53°36' E 008°31'0 0.0
2018-Feb-18 23:30N 53°36' E 008°31'0 0.0
2018-Feb-18 23:00N 53°36' E 008°31'0 0.0
2018-Feb-18 22:30N 53°36' E 008°31'1 2.3
2018-Feb-18 22:01N 53°37' E 008°29'713.2
2018-Feb-18 21:31N 53°41' E 008°21'917.0
2018-Feb-18 21:00N 53°47' E 008°10'815.4
2018-Feb-18 20:30N 53°51' E 007°59'713.7
2018-Feb-18 20:00N 53°52' E 007°48'815.6
2018-Feb-18 19:30N 53°54' E 007°35'5 9.0
2018-Feb-18 19:00N 53°51' E 007°28'0 1.0
2018-Feb-18 18:30N 53°51' E 007°29'0 1.0
2018-Feb-18 18:00N 53°51' E 007°30'0 0.9
2018-Feb-18 17:30N 53°51' E 007°30'0 0.6
2018-Feb-18 16:55N 53°51' E 007°31'0 0.7
2018-Feb-18 16:28N 53°51' E 007°31'3 3.4
2018-Feb-18 15:42N 53°52' E 007°27'0 1.1
2018-Feb-18 15:27N 53°52' E 007°27'0 1.1
2018-Feb-18 14:59N 53°52' E 007°28'0 0.7
2018-Feb-18 14:29N 53°51' E 007°28'0 0.4
2018-Feb-18 13:59N 53°51' E 007°28'1 2.1
2018-Feb-18 13:30N 53°52' E 007°29'5 8.0
2018-Feb-18 12:52N 53°53' E 007°21'4215.8
2018-Feb-18 10:15N 53°44' E 006°12'516.4
2018-Feb-18 09:56N 53°42' E 006°04'716.6
2018-Feb-18 09:30N 53°39' E 005°53'1216.9
2018-Feb-18 08:47N 53°36' E 005°34'518.2
2018-Feb-18 08:30N 53°34' E 005°25'918.6
2018-Feb-18 08:00N 53°32' E 005°10'1019.1
2018-Feb-18 07:30N 53°28' E 004°55'1218.4
2018-Feb-18 06:51N 53°20' E 004°40'720.0
2018-Feb-18 06:30N 53°14' E 004°36'1020.4
2018-Feb-18 06:00N 53°05' E 004°27'1019.8
2018-Feb-18 05:30N 52°56' E 004°19'1019.6
2018-Feb-18 05:00N 52°48' E 004°11'1019.8
2018-Feb-18 04:30N 52°39' E 004°02'1019.6
2018-Feb-18 04:00N 52°31' E 003°55'1019.7
2018-Feb-18 03:30N 52°21' E 003°52'1019.6
2018-Feb-18 03:00N 52°11' E 003°54'917.1
2018-Feb-18 02:30N 52°03' E 003°54'612.3
2018-Feb-18 02:00N 51°59' E 004°03'1 2.5
2018-Feb-18 01:30N 51°58' E 004°02'2 3.0
2018-Feb-18 01:00N 51°57' E 003°60'0 0.2
2018-Feb-18 00:25N 51°57' E 003°60'0 0.0
2018-Feb-17 23:52N 51°57' E 003°60'0 0.0
2018-Feb-17 23:28N 51°57' E 003°60'0 0.0
2018-Feb-17 22:58N 51°57' E 003°60'0 0.0
2018-Feb-17 22:28N 51°57' E 003°60'0 0.0
2018-Feb-17 21:58N 51°57' E 003°60'0 0.0
2018-Feb-17 21:28N 51°57' E 003°60'0 0.0
2018-Feb-17 20:55N 51°57' E 003°60'0 0.0
2018-Feb-17 20:28N 51°57' E 003°60'0 0.0
2018-Feb-17 19:58N 51°57' E 003°60'0 0.0
2018-Feb-17 19:28N 51°57' E 003°60'0 0.0
2018-Feb-17 18:58N 51°57' E 003°60'0 0.0
2018-Feb-17 18:28N 51°57' E 003°60'0 0.0
2018-Feb-17 17:58N 51°57' E 003°60'0 0.0
2018-Feb-17 17:28N 51°57' E 003°60'0 0.0
2018-Feb-17 16:58N 51°57' E 003°60'0 0.0
2018-Feb-17 16:28N 51°57' E 003°60'0 0.0
2018-Feb-17 15:58N 51°57' E 003°60'0 0.0
2018-Feb-17 15:28N 51°57' E 003°60'0 0.0
2018-Feb-17 14:58N 51°57' E 003°60'0 0.0
2018-Feb-17 14:28N 51°57' E 003°60'0 0.0
2018-Feb-17 13:58N 51°57' E 003°60'0 0.0
2018-Feb-17 13:28N 51°57' E 003°60'0 0.0
2018-Feb-17 12:58N 51°57' E 003°60'0 0.0
2018-Feb-17 12:28N 51°57' E 003°60'0 0.0
2018-Feb-17 11:58N 51°57' E 003°60'0 0.0
2018-Feb-17 11:28N 51°57' E 003°60'0 0.0
2018-Feb-17 10:58N 51°57' E 003°60'0 0.0
2018-Feb-17 10:28N 51°57' E 003°60'0 0.0
2018-Feb-17 09:58N 51°57' E 003°60'0 0.0
2018-Feb-17 09:28N 51°57' E 003°60'0 0.0
2018-Feb-17 08:58N 51°57' E 003°60'0 0.0
2018-Feb-17 08:28N 51°57' E 003°60'0 0.0
2018-Feb-17 07:55N 51°57' E 003°60'0 0.0
2018-Feb-17 07:28N 51°57' E 003°60'0 0.0
2018-Feb-17 06:58N 51°57' E 003°60'0 0.0
2018-Feb-17 06:28N 51°57' E 003°60'0 0.0
2018-Feb-17 05:58N 51°57' E 003°60'0 0.0
2018-Feb-17 05:28N 51°57' E 003°60'0 0.0
2018-Feb-17 04:58N 51°57' E 003°60'0 0.0
2018-Feb-17 04:25N 51°57' E 003°60'0 0.0
2018-Feb-17 03:58N 51°57' E 003°60'0 0.0
2018-Feb-17 03:22N 51°57' E 003°60'0 0.0
2018-Feb-17 02:58N 51°57' E 003°60'0 0.4
2018-Feb-17 02:30N 51°57' E 003°60'2 5.0
2018-Feb-17 02:00N 51°58' E 004°04'2 4.3
2018-Feb-17 01:31N 51°60' E 004°02'713.0
2018-Feb-17 01:01N 52°00' E 003°51'612.5
2018-Feb-17 00:30N 51°59' E 003°42'917.4
2018-Feb-17 00:00N 51°56' E 003°28'917.9
2018-Feb-16 23:30N 51°55' E 003°14'1019.0
2018-Feb-16 23:00N 51°54' E 002°58'918.9
2018-Feb-16 22:30N 51°53' E 002°43'918.7
2018-Feb-16 22:00N 51°53' E 002°28'918.2
2018-Feb-16 21:30N 51°53' E 002°13'917.7
2018-Feb-16 21:00N 51°51' E 001°59'815.7
2018-Feb-16 20:30N 51°49' E 001°47'815.3
2018-Feb-16 20:00N 51°52' E 001°35'611.8
2018-Feb-16 19:31N 51°56' E 001°29'612.7
2018-Feb-16 19:00N 51°56' E 001°19'2 3.5
2018-Feb-16 18:28N 51°58' E 001°18'0 0.0
2018-Feb-16 17:58N 51°58' E 001°18'0 0.0
2018-Feb-16 17:28N 51°58' E 001°18'0 0.0
2018-Feb-16 16:58N 51°58' E 001°18'0 0.0
2018-Feb-16 16:28N 51°58' E 001°18'0 0.0
2018-Feb-16 15:58N 51°58' E 001°18'0 0.0
2018-Feb-16 15:28N 51°58' E 001°18'0 0.0
2018-Feb-16 14:58N 51°58' E 001°18'0 0.0
2018-Feb-16 14:28N 51°58' E 001°18'0 0.0
2018-Feb-16 13:58N 51°58' E 001°18'0 0.0
2018-Feb-16 13:28N 51°58' E 001°18'0 0.0
2018-Feb-16 12:55N 51°58' E 001°18'0 0.0
2018-Feb-16 12:28N 51°58' E 001°18'0 0.0
2018-Feb-16 11:58N 51°58' E 001°18'0 0.0
2018-Feb-16 11:28N 51°58' E 001°18'0 0.0
2018-Feb-16 10:58N 51°58' E 001°18'0 0.0
2018-Feb-16 10:28N 51°58' E 001°18'0 0.0
2018-Feb-16 09:58N 51°58' E 001°18'0 0.0
2018-Feb-16 09:28N 51°58' E 001°18'0 0.0
2018-Feb-16 08:58N 51°58' E 001°18'0 0.0
2018-Feb-16 08:28N 51°58' E 001°18'0 0.0
2018-Feb-16 07:58N 51°58' E 001°18'0 0.0
2018-Feb-16 07:28N 51°58' E 001°18'0 0.0
2018-Feb-16 06:58N 51°58' E 001°18'0 0.0
2018-Feb-16 06:28N 51°58' E 001°18'0 0.0
2018-Feb-16 05:58N 51°58' E 001°18'0 0.0
2018-Feb-16 05:28N 51°58' E 001°18'0 0.0
2018-Feb-16 04:58N 51°58' E 001°18'0 0.1
2018-Feb-16 04:28N 51°58' E 001°18'0 0.1
2018-Feb-16 03:58N 51°58' E 001°18'0 0.0
2018-Feb-16 03:28N 51°58' E 001°18'0 0.0
2018-Feb-16 02:58N 51°58' E 001°18'0 0.0
2018-Feb-16 02:28N 51°58' E 001°18'0 0.0
2018-Feb-16 01:58N 51°58' E 001°18'0 0.0
2018-Feb-16 01:28N 51°58' E 001°18'0 0.0
2018-Feb-16 00:58N 51°58' E 001°18'0 0.0
2018-Feb-16 00:28N 51°58' E 001°18'0 0.0
2018-Feb-15 23:58N 51°58' E 001°18'0 0.0
2018-Feb-15 23:25N 51°58' E 001°18'0 0.0
2018-Feb-15 22:58N 51°58' E 001°18'0 0.0
2018-Feb-15 22:28N 51°58' E 001°18'0 0.0
2018-Feb-15 21:58N 51°58' E 001°18'0 0.0
2018-Feb-15 21:28N 51°58' E 001°18'0 0.0
2018-Feb-15 20:58N 51°58' E 001°18'0 0.0
2018-Feb-15 20:28N 51°58' E 001°18'0 0.0
2018-Feb-15 19:58N 51°58' E 001°18'0 0.0
2018-Feb-15 19:28N 51°58' E 001°18'0 0.0
2018-Feb-15 18:58N 51°58' E 001°18'0 0.0
2018-Feb-15 18:28N 51°58' E 001°18'0 0.0
2018-Feb-15 17:58N 51°58' E 001°18'0 0.0
2018-Feb-15 17:25N 51°58' E 001°18'0 0.0
2018-Feb-15 16:58N 51°58' E 001°18'0 0.0
2018-Feb-15 16:28N 51°58' E 001°18'0 0.0
2018-Feb-15 15:58N 51°58' E 001°18'0 0.0
2018-Feb-15 15:28N 51°58' E 001°18'0 0.0
2018-Feb-15 14:58N 51°58' E 001°18'0 0.0
2018-Feb-15 14:28N 51°58' E 001°18'0 0.0
2018-Feb-15 13:58N 51°58' E 001°18'0 0.0
2018-Feb-15 13:28N 51°58' E 001°18'0 0.0
2018-Feb-15 12:55N 51°58' E 001°18'0 0.0
2018-Feb-15 12:28N 51°58' E 001°18'0 0.0
2018-Feb-15 11:58N 51°58' E 001°18'0 0.0
2018-Feb-15 11:28N 51°58' E 001°18'0 0.0
2018-Feb-15 10:58N 51°58' E 001°18'0 0.0
2018-Feb-15 10:28N 51°58' E 001°18'0 0.0
2018-Feb-15 09:58N 51°58' E 001°18'0 0.0
2018-Feb-15 09:28N 51°58' E 001°18'0 0.0
2018-Feb-15 08:58N 51°58' E 001°18'0 0.0
2018-Feb-15 08:28N 51°58' E 001°18'0 0.0
2018-Feb-15 08:00N 51°58' E 001°18'1 1.1
2018-Feb-15 07:31N 51°57' E 001°18'4 7.5
2018-Feb-15 07:01N 51°56' E 001°24'612.0
2018-Feb-15 06:30N 51°55' E 001°34'4 8.4
2018-Feb-15 06:00N 51°52' E 001°37'1 2.4
2018-Feb-15 05:30N 51°52' E 001°39'2 3.4
2018-Feb-15 05:00N 51°52' E 001°41'2 3.1
2018-Feb-15 04:30N 51°53' E 001°43'0 0.8
2018-Feb-15 04:00N 51°52' E 001°44'1 1.9
2018-Feb-15 03:30N 51°53' E 001°44'1 2.5
2018-Feb-15 03:00N 51°54' E 001°45'2 3.7
2018-Feb-15 02:30N 51°56' E 001°45'2 3.5
2018-Feb-15 02:00N 51°57' E 001°48'2 4.7
2018-Feb-15 01:30N 51°55' E 001°48'5 9.6
2018-Feb-15 01:00N 51°50' E 001°49'510.5
2018-Feb-15 00:30N 51°45' E 001°49'3 5.8
2018-Feb-15 00:00N 51°43' E 001°46'2 4.1
2018-Feb-14 23:30N 51°45' E 001°44'2 4.8
2018-Feb-14 23:00N 51°47' E 001°44'2 4.9
2018-Feb-14 22:30N 51°50' E 001°44'2 3.5
2018-Feb-14 22:00N 51°51' E 001°46'3 5.7
2018-Feb-14 21:30N 51°49' E 001°49'4 7.8
2018-Feb-14 21:00N 51°45' E 001°49'5 9.5
2018-Feb-14 20:30N 51°40' E 001°50'5 9.6
2018-Feb-14 20:00N 51°36' E 001°51'5 9.9
2018-Feb-14 19:30N 51°31' E 001°55'5 9.9
2018-Feb-14 19:00N 51°27' E 001°59'5 9.2
2018-Feb-14 18:30N 51°23' E 002°01'510.7
2018-Feb-14 18:01N 51°18' E 001°56'612.5
2018-Feb-14 17:30N 51°14' E 001°49'612.8
2018-Feb-14 17:00N 51°09' E 001°43'713.1
2018-Feb-14 16:30N 51°04' E 001°37'713.3
2018-Feb-14 16:00N 50°58' E 001°31'713.9
2018-Feb-14 15:31N 50°52' E 001°25'713.8
2018-Feb-14 15:00N 50°45' E 001°22'713.3
2018-Feb-14 14:27N 50°39' E 001°15'712.9
2018-Feb-14 13:55N 50°34' E 001°08'613.1
2018-Feb-14 13:26N 50°30' E 001°00'912.7
2018-Feb-14 12:44N 50°27' E 000°47'311.9
2018-Feb-14 12:30N 50°26' E 000°43'611.7
2018-Feb-14 12:00N 50°25' E 000°34'611.8
2018-Feb-14 11:30N 50°23' E 000°25'612.0
2018-Feb-14 11:00N 50°22' E 000°16'612.2
2018-Feb-14 10:30N 50°20' E 000°07'612.6
2018-Feb-14 10:00N 50°19' W 000°03'713.0
2018-Feb-14 09:30N 50°17' W 000°13'713.5
2018-Feb-14 09:00N 50°15' W 000°23'714.0
2018-Feb-14 08:30N 50°13' W 000°33'714.4
2018-Feb-14 08:00N 50°11' W 000°44'815.3
2018-Feb-14 07:30N 50°09' W 000°55'815.9
2018-Feb-14 07:01N 50°07' W 001°07'815.9
2018-Feb-14 06:30N 50°05' W 001°19'815.6
2018-Feb-14 06:00N 50°03' W 001°31'815.3
2018-Feb-14 05:30N 50°01' W 001°43'714.8
2018-Feb-14 05:00N 49°59' W 001°54'714.2
2018-Feb-14 04:30N 49°57' W 002°05'1313.2
2018-Feb-14 03:30N 49°53' W 002°24'912.5
2018-Feb-14 02:48N 49°51' W 002°37'412.2
2018-Feb-14 02:30N 49°49' W 002°42'612.1
2018-Feb-14 02:01N 49°47' W 002°51'711.9
2018-Feb-14 01:28N 49°44' W 003°00'711.9
2018-Feb-14 00:52N 49°41' W 003°09'411.9
2018-Feb-14 00:31N 49°39' W 003°15'611.9
2018-Feb-13 23:59N 49°35' W 003°24'  

Dump ship's entire track history